Impacts TAF Board INFO
FOR SITUATIONAL AWARENESS. NOT TO BE USED FOR FLIGHT PLANNING PURPOSES.
IDs:

KPHL - Philadelphia Intl, PA, US

Issued at 1726 UTC 24 Apr 2018
Updated at 2042 UTC 24 Apr 2018
Potential Impact None Slight Moderate High
Time<<25/21Z 25/22Z 25/23Z 26/00Z 26/01Z 26/02Z 26/03Z 26/04Z 26/05Z 26/06Z 26/07Z 26/08Z 26/09Z
Type PRVL PRVL PRVL
VIS >6 >6 >6
CIG 15 15 15
Cover BKN BKN BKN
FltCat MVFR MVFR MVFR
WX -- -- --
WDir 360 360 360
WSpd 4 4 4
WGst -- -- --

Raw TAF
KPHL 241726Z 2418/2524 14011G20KT P6SM BKN050
  TEMPO 2423/2501 6SM -RA OVC035
  FM250100 11010KT 4SM RA OVC030
  FM250600 10009KT 4SM RA OVC008
  FM251100 09011KT 6SM -RA OVC007
  FM251400 09007KT P6SM BKN006
  FM252000 36004KT P6SM BKN015


METAR Board
Radar Display
Forecast Discussion

FOR SITUATIONAL AWARENESS. NOT TO BE USED FOR FLIGHT PLANNING PURPOSES.